createdAt,value
2023-03-25T00:01:16.210Z,9.10
2023-03-25T00:03:50.760Z,9.10
2023-03-25T00:06:19.981Z,9.00
2023-03-25T00:08:48.648Z,9.00
2023-03-25T00:11:16.938Z,8.90
2023-03-25T00:13:45.627Z,8.90
2023-03-25T00:16:14.017Z,8.90
2023-03-25T00:18:43.173Z,8.90
2023-03-25T00:21:12.711Z,8.80
2023-03-25T00:23:42.724Z,8.80
2023-03-25T00:26:11.810Z,8.80
2023-03-25T00:28:40.575Z,8.80
2023-03-25T00:31:12.767Z,8.80
2023-03-25T00:33:42.715Z,8.80
2023-03-25T00:36:14.744Z,8.80
2023-03-25T00:38:45.657Z,8.80
2023-03-25T00:41:17.790Z,8.80
2023-03-25T00:43:46.640Z,8.80
2023-03-25T00:46:14.940Z,8.80
2023-03-25T00:48:44.224Z,8.80
2023-03-25T00:51:21.403Z,8.80
2023-03-25T00:53:53.192Z,8.80
2023-03-25T00:56:21.786Z,8.80
2023-03-25T00:58:50.525Z,8.70
2023-03-25T01:01:23.597Z,8.70
2023-03-25T01:03:57.864Z,8.60
2023-03-25T01:06:29.846Z,8.70
2023-03-25T01:08:59.665Z,8.60
2023-03-25T01:11:30.188Z,8.60
2023-03-25T01:13:59.755Z,8.50
2023-03-25T01:16:29.152Z,8.60
2023-03-25T01:18:57.700Z,8.50
2023-03-25T01:21:27.463Z,8.50
2023-03-25T01:23:56.036Z,8.50
2023-03-25T01:26:24.274Z,8.50
2023-03-25T01:28:53.956Z,8.50
2023-03-25T01:31:23.399Z,8.50
2023-03-25T01:33:51.879Z,8.50
2023-03-25T01:36:21.392Z,8.50
2023-03-25T01:38:51.605Z,8.50
2023-03-25T01:41:19.993Z,8.50
2023-03-25T01:44:03.169Z,8.50
2023-03-25T01:46:31.430Z,8.50
2023-03-25T01:49:02.644Z,8.50
2023-03-25T01:51:34.308Z,8.50
2023-03-25T01:54:05.102Z,8.50
2023-03-25T01:56:36.705Z,8.40
2023-03-25T01:59:07.989Z,8.50
2023-03-25T02:01:36.765Z,8.40
2023-03-25T02:04:10.119Z,8.50
2023-03-25T02:06:43.089Z,8.50
2023-03-25T02:09:17.436Z,8.50
2023-03-25T02:11:45.681Z,8.50
2023-03-25T02:14:17.668Z,8.40
2023-03-25T02:16:51.881Z,8.40
2023-03-25T02:19:52.656Z,8.30
2023-03-25T02:22:53.641Z,8.40
2023-03-25T02:25:45.947Z,8.30
2023-03-25T02:28:25.775Z,8.30
2023-03-25T02:31:28.586Z,8.30
2023-03-25T02:34:37.818Z,8.20
2023-03-25T02:37:26.468Z,8.10
2023-03-25T02:40:01.832Z,8.10
2023-03-25T02:42:35.751Z,8.10
2023-03-25T02:45:08.038Z,8.00
2023-03-25T02:47:42.314Z,8.00
2023-03-25T02:50:15.659Z,7.90
2023-03-25T02:52:48.852Z,7.90
2023-03-25T02:55:20.814Z,7.90
2023-03-25T02:57:55.227Z,7.80
2023-03-25T03:00:27.522Z,7.80
2023-03-25T03:03:00.352Z,7.80
2023-03-25T03:05:31.776Z,7.80
2023-03-25T03:08:31.687Z,7.70
2023-03-25T03:11:08.762Z,7.70
2023-03-25T03:13:53.649Z,7.70
2023-03-25T03:16:30.984Z,7.70
2023-03-25T03:19:06.319Z,7.70
2023-03-25T03:21:40.840Z,7.70
2023-03-25T03:24:16.686Z,7.60
2023-03-25T03:26:55.329Z,7.60
2023-03-25T03:29:30.306Z,7.60
2023-03-25T03:32:06.409Z,7.60
2023-03-25T03:34:43.189Z,7.50
2023-03-25T03:37:13.930Z,7.40
2023-03-25T03:39:44.898Z,7.50
2023-03-25T03:42:19.885Z,7.50
2023-03-25T03:44:53.640Z,7.50
2023-03-25T03:47:26.214Z,7.50
2023-03-25T03:49:58.681Z,7.50
2023-03-25T03:52:31.895Z,7.50
2023-03-25T03:55:03.130Z,7.50
2023-03-25T03:57:37.381Z,7.50
2023-03-25T04:00:11.840Z,7.40
2023-03-25T04:02:42.658Z,7.40
2023-03-25T04:05:14.546Z,7.50
2023-03-25T04:07:46.229Z,7.50
2023-03-25T04:10:19.970Z,7.40
2023-03-25T04:12:53.082Z,7.40
2023-03-25T04:15:22.115Z,7.40
2023-03-25T04:17:50.932Z,7.40
2023-03-25T04:20:24.667Z,7.40
2023-03-25T04:22:53.777Z,7.40
2023-03-25T04:25:25.262Z,7.40
2023-03-25T04:27:58.897Z,7.30
2023-03-25T04:30:28.907Z,7.30
2023-03-25T04:32:57.391Z,7.30
2023-03-25T04:35:26.900Z,7.30
2023-03-25T04:37:57.572Z,7.30
2023-03-25T04:40:26.843Z,7.30
2023-03-25T04:42:57.566Z,7.30
2023-03-25T04:45:26.439Z,7.30
2023-03-25T04:47:55.142Z,7.30
2023-03-25T04:50:27.342Z,7.20
2023-03-25T04:52:58.177Z,7.30
2023-03-25T04:55:27.162Z,7.30
2023-03-25T04:57:56.961Z,7.30
2023-03-25T05:00:26.439Z,7.20
2023-03-25T05:02:56.707Z,7.30
2023-03-25T05:05:26.605Z,7.30
2023-03-25T05:07:58.389Z,7.30
2023-03-25T05:10:29.582Z,7.30
2023-03-25T05:13:01.884Z,7.30
2023-03-25T05:15:32.737Z,7.30
2023-03-25T05:18:02.043Z,7.40
2023-03-25T05:20:30.910Z,7.50
2023-03-25T05:22:59.171Z,7.60
2023-03-25T05:25:29.096Z,7.70
2023-03-25T05:27:57.498Z,7.80
2023-03-25T05:30:32.437Z,8.00
2023-03-25T05:33:01.876Z,8.20
2023-03-25T05:35:30.472Z,8.30
2023-03-25T05:37:58.820Z,8.50
2023-03-25T05:40:27.230Z,8.70
2023-03-25T05:42:56.116Z,8.90
2023-03-25T05:45:24.841Z,9.10
2023-03-25T05:47:54.488Z,9.40
2023-03-25T05:50:23.210Z,9.60
2023-03-25T05:52:51.898Z,9.80
2023-03-25T05:55:22.926Z,10.10
2023-03-25T05:57:51.415Z,10.50
2023-03-25T06:00:23.511Z,10.70
2023-03-25T06:02:54.936Z,11.00
2023-03-25T06:05:24.285Z,11.30
2023-03-25T06:07:56.373Z,11.60
2023-03-25T06:10:25.263Z,11.90
2023-03-25T06:12:54.444Z,12.30
2023-03-25T06:15:28.943Z,12.60
2023-03-25T06:17:59.654Z,12.80
2023-03-25T06:20:28.338Z,13.10
2023-03-25T06:22:56.761Z,13.40
2023-03-25T06:25:26.743Z,13.60
2023-03-25T06:27:56.193Z,13.80
2023-03-25T06:30:24.768Z,14.00
2023-03-25T06:32:55.864Z,14.20
2023-03-25T06:35:26.526Z,14.40
2023-03-25T06:37:55.467Z,14.50
2023-03-25T06:40:24.190Z,14.60
2023-03-25T06:42:52.539Z,14.80
2023-03-25T06:45:21.076Z,15.00
2023-03-25T06:47:49.350Z,15.20
2023-03-25T06:50:17.986Z,15.40
2023-03-25T06:52:47.801Z,15.70
2023-03-25T06:55:16.706Z,16.00
2023-03-25T06:57:45.471Z,16.20
2023-03-25T07:00:14.745Z,16.40
2023-03-25T07:02:42.973Z,16.70
2023-03-25T07:05:11.707Z,16.90
2023-03-25T07:07:40.464Z,17.10
2023-03-25T07:10:13.496Z,17.30
2023-03-25T07:12:41.781Z,17.50
2023-03-25T07:15:10.722Z,17.60
2023-03-25T07:17:39.091Z,17.80
2023-03-25T07:20:11.789Z,17.90
2023-03-25T07:22:41.256Z,18.20
2023-03-25T07:25:11.427Z,18.40
2023-03-25T07:27:39.872Z,18.70
2023-03-25T07:30:09.713Z,19.00
2023-03-25T07:32:38.075Z,19.20
2023-03-25T07:35:09.244Z,19.40
2023-03-25T07:37:37.548Z,19.50
2023-03-25T07:40:07.161Z,19.50
2023-03-25T07:42:37.485Z,19.50
2023-03-25T07:45:06.881Z,19.60
2023-03-25T07:47:35.585Z,19.60
2023-03-25T07:50:04.251Z,19.60
2023-03-25T07:52:32.562Z,19.70
2023-03-25T07:55:02.010Z,19.70
2023-03-25T07:57:30.340Z,19.60
2023-03-25T08:00:00.289Z,19.50
2023-03-25T08:02:28.915Z,19.60
2023-03-25T08:04:57.587Z,19.50
2023-03-25T08:07:28.335Z,19.30
2023-03-25T08:09:56.968Z,18.90
2023-03-25T08:12:25.247Z,18.50
2023-03-25T08:14:53.723Z,18.10
2023-03-25T08:17:23.949Z,17.90
2023-03-25T08:19:52.588Z,17.70
2023-03-25T08:22:20.862Z,17.50
2023-03-25T08:24:49.454Z,17.40
2023-03-25T08:27:17.713Z,17.20
2023-03-25T08:29:54.385Z,17.10
2023-03-25T08:32:24.380Z,16.90
2023-03-25T08:34:52.824Z,16.80
2023-03-25T08:37:21.616Z,16.80
2023-03-25T08:39:50.600Z,16.80
2023-03-25T08:42:19.432Z,16.90
2023-03-25T08:44:47.910Z,17.00
2023-03-25T08:47:16.224Z,17.00
2023-03-25T08:49:46.170Z,17.10
2023-03-25T08:52:14.350Z,17.00
2023-03-25T08:54:43.025Z,16.90
2023-03-25T08:57:11.508Z,16.80
2023-03-25T08:59:40.170Z,16.80
2023-03-25T09:02:08.485Z,16.80
2023-03-25T09:04:38.995Z,16.80
2023-03-25T09:07:12.509Z,16.90
2023-03-25T09:09:41.606Z,16.90
2023-03-25T09:12:10.201Z,16.80
2023-03-25T09:14:38.622Z,16.70
2023-03-25T09:17:07.033Z,16.60
2023-03-25T09:19:37.891Z,16.50
2023-03-25T09:22:08.355Z,16.40
2023-03-25T09:24:36.872Z,16.20
2023-03-25T09:27:05.340Z,16.00
2023-03-25T09:29:34.209Z,15.80
2023-03-25T09:32:03.113Z,15.70
2023-03-25T09:34:32.609Z,15.50
2023-03-25T09:37:01.200Z,15.40
2023-03-25T09:39:31.523Z,15.20
2023-03-25T09:42:10.689Z,14.90
2023-03-25T09:44:50.863Z,14.70
2023-03-25T09:47:21.662Z,14.50
2023-03-25T09:49:54.581Z,14.30
2023-03-25T09:52:27.711Z,14.20
2023-03-25T09:55:02.610Z,14.00
2023-03-25T09:57:33.688Z,14.00
2023-03-25T10:00:07.011Z,14.00
2023-03-25T10:02:42.174Z,14.00
2023-03-25T10:05:41.086Z,14.00
2023-03-25T10:08:17.992Z,14.00
2023-03-25T10:10:53.958Z,14.00
2023-03-25T10:13:27.960Z,14.10
2023-03-25T10:16:16.382Z,14.00
2023-03-25T10:18:56.692Z,13.90
2023-03-25T10:21:29.923Z,13.90
2023-03-25T10:24:06.364Z,13.80
2023-03-25T10:26:44.348Z,13.70
2023-03-25T10:29:16.986Z,13.70
2023-03-25T10:31:53.114Z,13.70
2023-03-25T10:34:24.649Z,13.70
2023-03-25T10:36:58.100Z,13.70
2023-03-25T10:39:34.316Z,13.60
2023-03-25T10:42:18.468Z,13.60
2023-03-25T10:44:47.236Z,13.40
2023-03-25T10:47:19.799Z,13.30
2023-03-25T10:49:51.035Z,13.30
2023-03-25T10:52:20.066Z,13.30
2023-03-25T10:54:52.923Z,13.40
2023-03-25T10:57:27.953Z,13.40
2023-03-25T11:00:08.627Z,13.60
2023-03-25T11:02:37.271Z,13.70
2023-03-25T11:05:08.588Z,13.80
2023-03-25T11:07:41.762Z,14.00
2023-03-25T11:10:23.083Z,14.20
2023-03-25T11:12:54.892Z,14.20
2023-03-25T11:15:25.699Z,14.40
2023-03-25T11:18:01.155Z,14.40
2023-03-25T11:20:31.908Z,14.40
2023-03-25T11:23:08.007Z,14.50
2023-03-25T11:25:41.798Z,14.40
2023-03-25T11:28:18.782Z,14.40
2023-03-25T11:31:11.055Z,14.30
2023-03-25T11:33:41.332Z,14.30
2023-03-25T11:36:21.221Z,14.20
2023-03-25T11:38:57.744Z,14.20
2023-03-25T11:41:30.421Z,14.30
2023-03-25T11:44:00.591Z,14.40
2023-03-25T11:46:28.872Z,14.40
2023-03-25T11:48:57.600Z,14.40
2023-03-25T11:51:29.554Z,14.60
2023-03-25T11:54:00.746Z,14.70
2023-03-25T11:56:35.224Z,14.90
2023-03-25T11:59:10.267Z,14.90
2023-03-25T12:02:02.482Z,14.90
2023-03-25T12:04:31.649Z,14.80
2023-03-25T12:07:02.776Z,14.70
2023-03-25T12:09:32.999Z,14.70
2023-03-25T12:12:21.617Z,14.70
2023-03-25T12:15:00.417Z,14.80
2023-03-25T12:17:38.219Z,14.80
2023-03-25T12:20:17.246Z,14.80
2023-03-25T12:22:59.597Z,14.70
2023-03-25T12:25:53.791Z,14.70
2023-03-25T12:29:05.536Z,14.60
2023-03-25T12:31:44.258Z,14.40
2023-03-25T12:34:24.868Z,14.20
2023-03-25T12:37:05.773Z,14.00
2023-03-25T12:39:53.730Z,13.80
2023-03-25T12:42:36.797Z,13.60
2023-03-25T12:45:25.422Z,13.40
2023-03-25T12:48:00.008Z,13.20
2023-03-25T12:50:36.810Z,13.00
2023-03-25T12:53:15.691Z,12.80
2023-03-25T12:55:52.578Z,12.60
2023-03-25T12:59:02.464Z,12.50
2023-03-25T13:01:40.570Z,12.50
2023-03-25T13:04:45.056Z,12.60
2023-03-25T13:07:17.090Z,12.60
2023-03-25T13:09:55.626Z,12.70
2023-03-25T13:12:32.363Z,12.80
2023-03-25T13:15:07.854Z,12.90
2023-03-25T13:17:41.120Z,12.90
2023-03-25T13:20:13.179Z,13.00
2023-03-25T13:22:44.936Z,13.00
2023-03-25T13:25:23.110Z,13.00
2023-03-25T13:27:53.258Z,13.00
2023-03-25T13:30:32.166Z,13.00
2023-03-25T13:33:06.206Z,13.00
2023-03-25T13:35:46.274Z,13.10
2023-03-25T13:38:21.265Z,13.10
2023-03-25T13:40:59.239Z,13.20
2023-03-25T13:43:33.329Z,13.30
2023-03-25T13:46:09.257Z,13.40
2023-03-25T13:48:45.124Z,13.60
2023-03-25T13:51:15.360Z,13.60
2023-03-25T13:53:47.613Z,13.70
2023-03-25T13:56:52.082Z,13.70
2023-03-25T13:59:52.525Z,13.70
2023-03-25T14:03:02.275Z,13.80
2023-03-25T14:05:56.566Z,13.90
2023-03-25T14:09:00.905Z,13.90
2023-03-25T14:11:32.029Z,14.10
2023-03-25T14:14:04.213Z,14.20
2023-03-25T14:16:38.718Z,14.20
2023-03-25T14:19:12.643Z,14.30
2023-03-25T14:21:44.344Z,14.40
2023-03-25T14:24:19.660Z,14.50
2023-03-25T14:26:51.659Z,14.60
2023-03-25T14:29:30.704Z,14.60
2023-03-25T14:32:08.424Z,14.60
2023-03-25T14:34:56.076Z,14.60
2023-03-25T14:37:30.869Z,14.60
2023-03-25T14:40:07.332Z,14.50
2023-03-25T14:42:44.393Z,14.50
2023-03-25T14:45:42.169Z,14.30
2023-03-25T14:48:26.276Z,14.20
2023-03-25T14:51:14.942Z,14.00
2023-03-25T14:53:56.683Z,13.80
2023-03-25T14:56:34.064Z,13.60
2023-03-25T14:59:10.504Z,13.50
2023-03-25T15:01:41.739Z,13.40
2023-03-25T15:04:16.594Z,13.20
2023-03-25T15:06:49.123Z,13.10
2023-03-25T15:09:19.573Z,13.10
2023-03-25T15:11:59.527Z,13.00
2023-03-25T15:14:32.954Z,13.00
2023-03-25T15:17:08.234Z,12.90
2023-03-25T15:20:15.750Z,12.90
2023-03-25T15:22:44.671Z,12.90
2023-03-25T15:25:18.615Z,12.90
2023-03-25T15:28:14.971Z,12.90
2023-03-25T15:30:58.600Z,12.80
2023-03-25T15:33:46.114Z,12.70
2023-03-25T15:36:34.657Z,12.70
2023-03-25T15:39:18.391Z,12.70
2023-03-25T15:42:08.636Z,12.60
2023-03-25T15:44:53.301Z,12.60
2023-03-25T15:47:37.572Z,12.60
2023-03-25T15:50:38.329Z,12.50
2023-03-25T15:53:43.033Z,12.50
2023-03-25T15:56:14.546Z,12.50
2023-03-25T15:58:51.136Z,12.50
2023-03-25T16:01:27.697Z,12.50
2023-03-25T16:04:01.269Z,12.50
2023-03-25T16:06:30.824Z,12.40
2023-03-25T16:09:00.380Z,12.40
2023-03-25T16:11:29.981Z,12.40
2023-03-25T16:14:08.358Z,12.30
2023-03-25T16:16:41.745Z,12.30
2023-03-25T16:19:16.442Z,12.30
2023-03-25T16:21:48.734Z,12.30
2023-03-25T16:24:20.630Z,12.20
2023-03-25T16:26:51.212Z,12.20
2023-03-25T16:29:20.991Z,12.20
2023-03-25T16:31:56.471Z,12.10
2023-03-25T16:34:26.255Z,12.10
2023-03-25T16:36:56.598Z,12.00
2023-03-25T16:39:26.215Z,11.90
2023-03-25T16:42:02.818Z,11.80
2023-03-25T16:44:31.290Z,11.70
2023-03-25T16:47:02.291Z,11.70
2023-03-25T16:49:33.697Z,11.60
2023-03-25T16:52:05.274Z,11.50
2023-03-25T16:54:37.768Z,11.50
2023-03-25T16:57:08.952Z,11.30
2023-03-25T16:59:39.116Z,11.30
2023-03-25T17:02:26.536Z,11.20
2023-03-25T17:04:58.748Z,11.10
2023-03-25T17:07:29.841Z,11.00
2023-03-25T17:10:00.332Z,10.90
2023-03-25T17:12:30.765Z,10.90
2023-03-25T17:15:06.893Z,10.80
2023-03-25T17:17:42.183Z,10.80
2023-03-25T17:20:19.023Z,10.70
2023-03-25T17:23:02.034Z,10.60
2023-03-25T17:25:33.434Z,10.60
2023-03-25T17:28:09.993Z,10.60
2023-03-25T17:30:45.806Z,10.60
2023-03-25T17:33:19.684Z,10.60
2023-03-25T17:35:53.888Z,10.60
2023-03-25T17:38:27.808Z,10.60
2023-03-25T17:41:04.341Z,10.60
2023-03-25T17:43:35.243Z,10.60
2023-03-25T17:46:05.974Z,10.70
2023-03-25T17:48:36.782Z,10.60
2023-03-25T17:51:05.697Z,10.60
2023-03-25T17:53:34.299Z,10.60
2023-03-25T17:56:03.705Z,10.60
2023-03-25T17:58:32.477Z,10.60
2023-03-25T18:01:01.389Z,10.60
2023-03-25T18:03:32.681Z,10.50
2023-03-25T18:06:02.471Z,10.60
2023-03-25T18:08:31.185Z,10.50
2023-03-25T18:11:00.074Z,10.50
2023-03-25T18:13:28.768Z,10.40
2023-03-25T18:15:57.046Z,10.30
2023-03-25T18:18:27.450Z,10.30
2023-03-25T18:20:57.072Z,10.20
2023-03-25T18:23:28.351Z,10.20
2023-03-25T18:25:57.912Z,10.20
2023-03-25T18:28:26.465Z,10.10
2023-03-25T18:30:56.812Z,10.10
2023-03-25T18:33:25.717Z,10.10
2023-03-25T18:35:56.337Z,10.10
2023-03-25T18:38:27.770Z,10.00
2023-03-25T18:40:57.414Z,10.00
2023-03-25T18:43:26.044Z,10.00
2023-03-25T18:45:54.456Z,9.90
2023-03-25T18:48:23.763Z,9.90
2023-03-25T18:50:54.746Z,9.80
2023-03-25T18:53:25.819Z,9.80
2023-03-25T18:55:59.693Z,9.80
2023-03-25T18:58:31.102Z,9.90
2023-03-25T19:01:01.065Z,9.90
2023-03-25T19:03:31.752Z,10.00
2023-03-25T19:06:01.022Z,10.00
2023-03-25T19:08:29.678Z,10.10
2023-03-25T19:11:07.902Z,10.20
2023-03-25T19:13:41.233Z,10.20
2023-03-25T19:16:12.992Z,10.30
2023-03-25T19:18:41.727Z,10.30
2023-03-25T19:21:15.624Z,10.30
2023-03-25T19:23:44.247Z,10.30
2023-03-25T19:26:14.768Z,10.30
2023-03-25T19:28:43.507Z,10.30
2023-03-25T19:31:15.696Z,10.20
2023-03-25T19:33:45.082Z,10.20
2023-03-25T19:36:15.884Z,10.10
2023-03-25T19:38:44.570Z,10.10
2023-03-25T19:41:16.878Z,10.00
2023-03-25T19:43:45.745Z,10.00
2023-03-25T19:46:14.475Z,9.90
2023-03-25T19:48:43.030Z,9.80
2023-03-25T19:51:11.585Z,9.80
2023-03-25T19:53:40.402Z,9.70
2023-03-25T19:56:13.725Z,9.70
2023-03-25T19:58:43.807Z,9.60
2023-03-25T20:01:12.205Z,9.50
2023-03-25T20:03:41.214Z,9.50
2023-03-25T20:06:09.884Z,9.40
2023-03-25T20:08:38.469Z,9.30
2023-03-25T20:11:11.936Z,9.30
2023-03-25T20:13:40.619Z,9.20
2023-03-25T20:16:10.934Z,9.20
2023-03-25T20:18:41.426Z,9.10
2023-03-25T20:21:10.376Z,9.10
2023-03-25T20:23:39.063Z,9.00
2023-03-25T20:26:07.847Z,9.00
2023-03-25T20:28:37.282Z,8.90
2023-03-25T20:31:18.693Z,8.80
2023-03-25T20:33:47.950Z,8.80
2023-03-25T20:36:16.485Z,8.80
2023-03-25T20:38:56.672Z,8.80
2023-03-25T20:41:26.664Z,8.80
2023-03-25T20:43:55.275Z,8.80
2023-03-25T20:46:28.431Z,8.80
2023-03-25T20:48:57.886Z,8.80
2023-03-25T20:51:26.683Z,8.90
2023-03-25T20:53:55.634Z,8.90
2023-03-25T20:56:23.907Z,9.00
2023-03-25T20:58:52.349Z,9.10
2023-03-25T21:01:21.209Z,9.10
2023-03-25T21:03:51.927Z,9.10
2023-03-25T21:06:23.758Z,9.10
2023-03-25T21:08:54.744Z,9.20
2023-03-25T21:11:23.256Z,9.20
2023-03-25T21:13:52.094Z,9.20
2023-03-25T21:16:20.650Z,9.20
2023-03-25T21:18:50.258Z,9.20
2023-03-25T21:21:20.282Z,9.20
2023-03-25T21:23:49.481Z,9.30
2023-03-25T21:26:17.976Z,9.20
2023-03-25T21:28:46.453Z,9.20
2023-03-25T21:31:18.866Z,9.30
2023-03-25T21:33:49.915Z,9.30
2023-03-25T21:36:23.099Z,9.30
2023-03-25T21:38:52.772Z,9.30
2023-03-25T21:41:20.988Z,9.20
2023-03-25T21:43:49.481Z,9.30
2023-03-25T21:46:17.849Z,9.20
2023-03-25T21:48:48.536Z,9.20
2023-03-25T21:51:16.777Z,9.20
2023-03-25T21:53:47.182Z,9.20
2023-03-25T21:56:17.474Z,9.20
2023-03-25T21:58:47.075Z,9.20
2023-03-25T22:01:17.591Z,9.20
2023-03-25T22:03:46.689Z,9.20
2023-03-25T22:06:16.671Z,9.20
2023-03-25T22:08:47.374Z,9.20
2023-03-25T22:11:18.809Z,9.20
2023-03-25T22:13:47.355Z,9.20
2023-03-25T22:16:17.251Z,9.20
2023-03-25T22:18:45.944Z,9.30
2023-03-25T22:21:17.097Z,9.30
2023-03-25T22:23:48.194Z,9.20
2023-03-25T22:26:17.953Z,9.30
2023-03-25T22:28:47.667Z,9.30
2023-03-25T22:31:18.566Z,9.20
2023-03-25T22:33:49.182Z,9.20
2023-03-25T22:36:17.864Z,9.20
2023-03-25T22:38:49.948Z,9.00
2023-03-25T22:41:19.062Z,9.00
2023-03-25T22:43:47.818Z,9.00
2023-03-25T22:46:16.775Z,8.90
2023-03-25T22:48:45.387Z,8.80
2023-03-25T22:51:15.934Z,8.80
2023-03-25T22:53:44.898Z,8.80
2023-03-25T22:56:15.089Z,8.70
2023-03-25T22:58:43.888Z,8.70
2023-03-25T23:01:20.329Z,8.70
2023-03-25T23:03:48.894Z,8.70
2023-03-25T23:06:17.537Z,8.70
2023-03-25T23:08:47.510Z,8.70
2023-03-25T23:11:20.190Z,8.80
2023-03-25T23:13:52.068Z,8.80
2023-03-25T23:16:23.046Z,8.80
2023-03-25T23:18:52.034Z,8.80
2023-03-25T23:21:21.747Z,8.80
2023-03-25T23:23:52.234Z,8.80
2023-03-25T23:26:26.490Z,8.80
2023-03-25T23:29:00.292Z,8.80
2023-03-25T23:31:33.875Z,8.80
2023-03-25T23:34:05.467Z,8.80
2023-03-25T23:36:36.328Z,8.80
2023-03-25T23:39:07.533Z,8.80
2023-03-25T23:41:37.554Z,8.80
2023-03-25T23:44:06.787Z,8.80
2023-03-25T23:46:36.003Z,8.80
2023-03-25T23:49:05.776Z,8.80
2023-03-25T23:51:37.242Z,8.80
2023-03-25T23:54:07.392Z,8.70
2023-03-25T23:56:38.201Z,8.70
2023-03-25T23:59:07.569Z,8.70
